Etusivu
METAR-TAF:

METAR-TAF

Lentoasemat :

Agen, Ranska

Leveyspiiri: 44-11N, Pituuspiiri: 000-36E, korkeus merenpinnasta: 61 m

Tämänhetkinen sää

Tämä raportti tehtiin 39 minuuttia sitten, kello 18.30 UTC
Tuuli 4 kn pohjoisen/luoteesta
Lämpötila 16°C
Kosteus 48%
Ilmanpaine 1017 hPa
Näkyvyys 10 km tai enemmän
ei pilviä alle 1500 m:ssä eikä cumulonimbus-pilviä

METAR: LFBA 261830Z AUTO 33004KT CAVOK 16/05 Q1017 NOSIG

Aika: 21:09 (19:09 UTC)

Sääennuste

Tämä raportti tehtiin 5 tuntia ja 9 minuuttia sitten, kello 14.00 UTC
Ennuste voimassa 26. päivästä klo 15 UTC - 26. päivään klo 24 UTC
Tuuli 5 kn lännestä/luoteesta
Näkyvyys 10 km tai enemmän
ei pilviä alle 1500 m:ssä eikä cumulonimbus-pilviä

TAF: LFBA 261400Z 2615/2624 30005KT CAVOK

Säähavainnot ja -ennusteet yli 4000 lentoasemalta (METAR- ja TAF-raportit).

Käytössä olevat sääasemat on merkitty karttaan keltaisilla ja punaisilla pisteillä.

Aseta hiiri pisteen päälle nähdäksesi sääaseman nimen.

Klikkaa sitten nähdäksesi säähavainnot ja -ennusteet.

Kartan vaihtaminen: klikkaa mustalla rastilla varustettuja vihreitä pisteitä, niin voit zoomata sisään; viivalla varustettua vihreää pistettä, niin voit zoomata ulos tai vihreitä nuolia, niin pääset viereisille kartoille.


METAR-TAF: